Blocker, Oklahoma
Current Conditions -  °F | °C
As of 6:53 PM on Wednesday 26 Nov 2014 (Local Time) from KMLC Reporting Station
Scattered Clouds Scattered Clouds  
Wind Chill: 43°   Ceiling: Unl
Heat Index: 48°   Visibility: 10mi
Dew Point: 28°   Wind: 10mph
Humidity: 46%   Direction: 340°NNW
Pressure: 30.27"   Gusts: NA
Location:  35.06°N, 95.57°W
Report Text: KMLC 270053Z AUTO 34009KT 10SM FEW070 SCT095 09/M02 A3027 RMK AO2 SLP252 T00891022
Loading
Personal Weather Stations






























Interactive Weather Map New forecast layout! Learn more

10-Day Weather Forecast

Advertisements
Track Severe Weather on mobile